Latest Weather Observations for Lake Julius

IDQ60801

Issued at 3:22 pm EST Wednesday 28 September 2022 (issued every 10 minutes, with the page automatically refreshed every 10 minutes)

About weather observations | Map of weather stations | Latest weather observations for QLD | Other Formats
Station Details ID: 029181 Name: LAKE JULIUS AWS Lat: -20.12 Lon: 139.73 Height: 237.0 m
Data from the previous 72 hours. | See also: Recent months at Lake Julius
Date/Time
EST
Temp
°C
App
Temp
°C
Dew
Point
°C
Rel
Hum
%
Delta-T
°C
Wind Press
QNH
hPa
Press
MSL
hPa
Rain since
9am
mm
Dir  Spd
km/h
Gust
km/h
Spd
kts
Gust
kts
28/03:00pm 20.3 21.3 17.7 85 1.6 SSW 9 15 5 8 - - 5.0
28/02:30pm 20.3 21.8 17.7 85 1.6 SSW 6 11 3 6 - - 5.0
28/02:00pm 19.9 21.4 18.0 89 1.2 WSW 7 15 4 8 - - 5.0
28/01:30pm 19.0 18.8 17.5 91 0.9 ENE 15 24 8 13 - - 4.8
28/01:00pm 19.0 19.9 17.5 91 0.9 NE 9 17 5 9 - - 4.8
28/12:30pm 18.9 21.2 17.6 92 0.8 S 2 6 1 3 - - 3.6
28/12:00pm 18.8 19.3 17.5 92 0.8 S 11 17 6 9 - - 1.8
28/11:30am 18.8 19.1 17.1 90 1.0 S 11 20 6 11 - - 1.2
28/11:00am 18.6 19.5 16.6 88 1.2 S 7 13 4 7 - - 0.6
28/10:30am 18.7 19.2 15.6 82 1.8 SSE 7 13 4 7 - - 0.0
28/10:00am 19.4 19.9 15.1 76 2.5 ESE 6 9 3 5 - - 0.0
28/09:30am 19.6 19.2 15.3 76 2.6 S 11 20 6 11 - - 0.0
28/09:00am 19.5 18.7 15.0 75 2.7 SSE 13 20 7 11 - - 0.0
28/08:30am 19.6 18.7 14.8 74 2.8 SSE 13 19 7 10 - - 0.0
28/08:00am 19.5 19.6 14.5 73 2.9 SSE 7 13 4 7 - - 0.0
28/07:30am 19.3 19.5 14.6 74 2.8 S 7 11 4 6 - - 0.0
28/07:00am 20.1 19.8 13.3 65 3.9 S 7 17 4 9 - - 0.0
28/06:30am 20.1 19.6 12.6 62 4.3 SSE 7 17 4 9 - - 0.0
28/06:00am 20.2 19.3 12.7 62 4.3 SSE 9 17 5 9 - - 0.0
28/05:30am 20.5 18.8 12.5 60 4.6 SSE 13 22 7 12 - - 0.0
28/05:00am 20.8 18.6 12.0 57 5.0 SSE 15 26 8 14 - - 0.0
28/04:30am 21.2 19.2 11.5 54 5.4 SSE 13 20 7 11 - - 0.0
28/04:00am 21.3 19.3 11.6 54 5.5 SSE 13 22 7 12 - - 0.0
28/03:30am 21.5 17.4 11.5 53 5.6 SSE 24 37 13 20 - - 0.0
28/03:00am 22.2 19.1 10.4 47 6.5 SSE 17 32 9 17 - - 0.0
28/02:30am 22.7 18.6 10.2 45 6.9 S 22 41 12 22 - - 0.0
28/02:00am 23.1 18.1 9.5 42 7.4 SSE 26 44 14 24 - - 0.0
28/01:30am 23.6 19.7 8.5 38 8.1 SSE 19 30 10 16 - - 0.0
28/01:00am 23.7 20.1 8.2 37 8.3 SSE 17 26 9 14 - - 0.0
28/12:30am 24.0 20.3 8.0 36 8.6 SSE 17 30 9 16 - - 0.0
28/12:00am 24.1 20.4 8.1 36 8.6 S 17 28 9 15 - - 0.0
 
Date/Time
EST
Temp
°C
App
Temp
°C
Dew
Point
°C
Rel
Hum
%
Delta-T
°C
Wind Press
QNH
hPa
Press
MSL
hPa
Rain since
9am
mm
Dir  Spd
km/h
Gust
km/h
Spd
kts
Gust
kts
27/11:30pm 24.2 19.9 7.8 35 8.8 SSE 20 37 11 20 - - 0.0
27/11:00pm 24.5 18.6 7.6 34 9.0 SSE 28 44 15 24 - - 0.0
27/10:36pm 24.9 18.6 7.5 33 9.3 S 30 48 16 26 - - 0.0
27/10:30pm 24.9 20.1 7.5 33 9.3 S 22 48 12 26 - - 0.0
27/10:00pm 25.7 20.1 7.3 31 9.8 SSE 26 41 14 22 - - 0.0
27/09:47pm 25.9 20.0 7.5 31 9.9 SSE 28 56 15 30 - - 0.0
27/09:30pm 26.2 20.6 7.3 30 10.1 SSE 26 43 14 23 - - 0.0
27/09:00pm 26.8 20.7 6.8 28 10.6 S 28 50 15 27 - - 0.0
27/08:30pm 27.8 20.9 6.6 26 11.3 S 32 56 17 30 - - 0.0
27/08:06pm 29.0 24.3 7.6 26 11.7 SSE 22 57 12 31 - - 0.0
27/08:00pm 29.3 24.1 7.2 25 12.0 SSE 24 37 13 20 - - 0.0
27/07:47pm 29.7 23.8 7.6 25 12.1 S 28 46 15 25 - - 0.0
27/07:30pm 30.5 23.9 7.7 24 12.6 S 32 50 17 27 - - 0.0
27/07:22pm 30.8 23.9 7.3 23 12.9 S 33 59 18 32 - - 0.0
27/07:17pm 31.5 26.5 6.5 21 13.6 S 22 59 12 32 - - 0.0
27/07:00pm 32.0 29.3 5.5 19 14.2 S 9 17 5 9 - - 0.0
27/06:30pm 33.3 29.7 5.0 17 15.2 SSE 13 19 7 10 - - 0.0
27/06:00pm 33.7 30.2 5.3 17 15.3 SSE 13 22 7 12 - - 0.0
27/05:30pm 34.2 30.8 5.7 17 15.5 SSE 13 22 7 12 - - 0.0
27/05:00pm 35.2 31.5 6.5 17 15.9 S 15 22 8 12 - - 0.0
27/04:30pm 35.0 31.3 6.3 17 15.8 S 15 26 8 14 - - 0.0
27/04:00pm 35.5 31.7 5.8 16 16.3 SSE 15 26 8 14 - - 0.0
27/03:30pm 35.5 31.7 5.8 16 16.3 SSE 15 30 8 16 - - 0.0
27/03:00pm 35.7 33.3 6.9 17 16.1 SSE 9 30 5 16 - - 0.0
27/02:30pm 35.1 31.8 6.4 17 15.9 ESE 13 28 7 15 - - 0.0
27/02:00pm 35.1 31.4 6.4 17 15.9 ESE 15 33 8 18 - - 0.0
27/01:30pm 34.4 30.8 6.7 18 15.3 SSE 15 32 8 17 - - 0.0
27/01:00pm 34.2 30.7 7.3 19 15.0 SE 15 32 8 17 - - 0.0
27/12:30pm 34.2 30.5 8.0 20 14.8 ESE 17 35 9 19 - - 0.0
27/12:00pm 33.3 29.1 7.3 20 14.4 ESE 19 35 10 19 - - 0.0
27/11:30am 33.1 29.0 6.4 19 14.6 ESE 17 26 9 14 - - 0.0
27/11:00am 32.9 28.4 6.2 19 14.5 SE 19 33 10 18 - - 0.0
27/10:30am 31.8 27.9 5.3 19 14.1 ESE 15 37 8 20 - - 0.0
27/10:00am 31.1 27.2 5.5 20 13.7 SE 15 28 8 15 - - 0.0
27/09:30am 29.4 25.4 4.8 21 12.8 ESE 15 30 8 16 - - 0.0
27/09:00am 28.7 24.3 4.9 22 12.4 ESE 17 32 9 17 - - 0.0
27/08:30am 28.1 25.8 5.6 24 11.8 SE 7 17 4 9 - - 0.0
27/08:00am 26.1 23.9 6.2 28 10.4 S 7 15 4 8 - - 0.0
27/07:30am 23.1 21.5 8.8 40 7.7 SSW 7 9 4 5 - - 0.0
27/07:00am 21.9 20.8 4.9 33 8.5 CALM 0 0 0 0 - - 0.0
27/06:30am 23.0 21.8 4.5 30 9.2 CALM 0 0 0 0 - - 0.0
27/06:00am 22.4 21.2 4.5 31 8.9 CALM 0 0 0 0 - - 0.0
27/05:30am 23.3 22.2 5.2 31 9.2 CALM 0 0 0 0 - - 0.0
27/05:00am 24.5 22.2 4.8 28 10.0 S 6 9 3 5 - - 0.0
27/04:30am 25.2 22.2 4.3 26 10.5 S 9 17 5 9 - - 0.0
27/04:00am 25.4 22.0 4.0 25 10.7 S 11 17 6 9 - - 0.0
27/03:30am 22.2 19.8 4.3 31 8.9 S 6 9 3 5 - - 0.0
27/03:00am 21.9 20.8 4.9 33 8.5 CALM 0 2 0 1 - - 0.0
27/02:30am 21.5 19.3 5.4 35 8.1 SSW 6 9 3 5 - - 0.0
27/02:00am 22.5 21.7 6.7 36 8.2 CALM 0 0 0 0 - - 0.0
27/01:30am 21.8 20.5 6.1 36 8.0 SSW 2 2 1 1 - - 0.0
27/01:00am 23.3 22.4 9.3 41 7.6 SSW 4 6 2 3 - - 0.0
27/12:30am 24.4 22.6 7.1 33 9.1 SW 6 6 3 3 - - 0.0
27/12:00am 22.9 22.1 9.7 43 7.2 SW 4 7 2 4 - - 0.0
 
Date/Time
EST
Temp
°C
App
Temp
°C
Dew
Point
°C
Rel
Hum
%
Delta-T
°C
Wind Press
QNH
hPa
Press
MSL
hPa
Rain since
9am
mm
Dir  Spd
km/h
Gust
km/h
Spd
kts
Gust
kts
26/11:30pm 23.3 23.2 10.7 45 7.0 SSW 2 6 1 3 - - 0.0
26/11:00pm 23.6 22.4 9.6 41 7.7 SSW 6 7 3 4 - - 0.0
26/10:30pm 23.6 22.8 9.6 41 7.7 SSW 4 6 2 3 - - 0.0
26/10:00pm 24.9 23.9 8.8 36 8.8 SSW 4 6 2 3 - - 0.0
26/09:30pm 24.4 23.7 7.1 33 9.1 CALM 0 0 0 0 - - 0.0
26/09:00pm 25.3 25.5 10.4 39 8.4 CALM 0 0 0 0 - - 0.0
26/08:30pm 26.2 26.6 11.2 39 8.6 CALM 0 0 0 0 - - 0.0
26/08:00pm 27.7 26.3 3.4 21 12.3 CALM 0 0 0 0 - - 0.0
26/07:30pm 29.3 27.3 0.0 15 14.1 CALM 0 0 0 0 - - 0.0
26/07:00pm 32.2 29.4 -3.2 10 16.4 SSW 2 4 1 2 - - 0.0
26/06:30pm 32.7 29.2 -1.6 11 16.4 SSW 7 9 4 5 - - 0.0
26/06:00pm 34.0 30.2 -0.6 11 17.0 SSW 9 13 5 7 - - 0.0
26/05:30pm 34.7 29.9 -0.1 11 17.3 S 15 20 8 11 - - 0.0
26/05:00pm 35.4 31.2 -0.8 10 17.9 S 11 19 6 10 - - 0.0
26/04:30pm 35.8 32.2 0.8 11 17.8 S 9 15 5 8 - - 0.0
26/04:00pm 35.9 31.6 0.9 11 17.8 S 13 19 7 10 - - 0.0
26/03:30pm 36.2 32.9 -0.2 10 18.2 E 7 15 4 8 - - 0.0
26/03:00pm 35.8 31.8 0.8 11 17.8 S 11 22 6 12 - - 0.0
26/02:30pm 35.7 31.4 0.7 11 17.7 SSW 13 19 7 10 - - 0.0
26/02:00pm 36.0 32.4 -1.8 9 18.4 SSW 7 15 4 8 - - 0.0
26/01:30pm 35.1 31.3 1.5 12 17.2 SSW 11 17 6 9 - - 0.0
26/01:00pm 34.8 30.9 1.2 12 17.1 NNE 11 22 6 12 - - 0.0
26/12:30pm 33.5 30.2 2.4 14 16.0 ESE 9 19 5 10 - - 0.0
26/12:00pm 33.8 30.1 2.6 14 16.1 ESE 11 24 6 13 - - 0.0
26/11:30am 32.7 29.1 2.7 15 15.4 E 11 19 6 10 - - 0.0
26/11:00am 32.3 28.6 4.2 17 14.8 ENE 13 20 7 11 - - 0.0
26/10:30am 30.3 26.9 4.1 19 13.6 ENE 11 24 6 13 - - 0.0
26/10:00am 30.5 27.3 5.0 20 13.4 ESE 11 24 6 13 - - 0.0
26/09:30am 28.6 25.6 4.2 21 12.6 E 9 17 5 9 - - 0.0
26/09:00am 27.3 25.0 5.0 24 11.5 SE 6 13 3 7 - - 0.0
26/08:30am 25.7 23.6 5.8 28 10.3 ESE 6 15 3 8 - - 0.0
26/08:27am 25.5 23.8 5.7 28 10.3 SE 4 15 2 8 - - 0.0
26/08:00am 20.4 20.4 9.9 51 5.7 CALM 0 0 0 0 - - 0.0
26/07:30am 17.3 17.1 9.2 59 4.3 CALM 0 0 0 0 - - 0.0
26/07:00am 15.3 14.8 7.8 61 3.8 CALM 0 0 0 0 - - 0.0
26/06:30am 15.3 13.9 7.3 59 4.0 NNE 4 4 2 2 - - 0.0
26/06:00am 15.0 14.5 7.8 62 3.6 CALM 0 6 0 3 - - 0.0
26/05:30am 16.9 17.0 10.3 65 3.5 CALM 0 0 0 0 - - 0.0
26/05:00am 17.4 17.7 10.8 65 3.6 CALM 0 0 0 0 - - 0.0
26/04:30am 16.9 16.7 9.1 60 4.1 CALM 0 0 0 0 - - 0.0
26/04:00am 18.0 18.2 10.4 61 4.1 CALM 0 0 0 0 - - 0.0
26/03:30am 17.8 17.7 9.4 58 4.5 CALM 0 0 0 0 - - 0.0
26/03:00am 18.6 18.2 9.7 56 4.8 SW 2 4 1 2 - - 0.0
26/02:30am 18.6 17.6 10.4 59 4.4 SSW 6 7 3 4 - - 0.0
26/02:00am 19.2 19.2 9.9 55 5.0 CALM 0 0 0 0 - - 0.0
26/01:30am 19.1 18.9 9.0 52 5.4 CALM 0 0 0 0 - - 0.0
26/01:00am 19.5 18.6 9.1 51 5.5 SW 4 7 2 4 - - 0.0
26/12:30am 20.1 19.8 8.8 48 6.0 CALM 0 2 0 1 - - 0.0
26/12:00am 20.5 19.9 10.3 52 5.6 SSW 4 6 2 3 - - 0.0
 
Date/Time
EST
Temp
°C
App
Temp
°C
Dew
Point
°C
Rel
Hum
%
Delta-T
°C
Wind Press
QNH
hPa
Press
MSL
hPa
Rain since
9am
mm
Dir  Spd
km/h
Gust
km/h
Spd
kts
Gust
kts
25/11:30pm 20.8 20.9 10.3 51 5.8 CALM 0 0 0 0 - - 0.0
25/11:00pm 21.6 20.7 7.8 41 7.3 SW 2 4 1 2 - - 0.0
25/10:30pm 22.0 20.7 7.8 40 7.5 SSW 4 6 2 3 - - 0.0
25/10:00pm 22.8 22.3 7.8 38 7.9 CALM 0 0 0 0 - - 0.0
25/09:30pm 23.8 23.5 8.6 38 8.2 CALM 0 0 0 0 - - 0.0
25/09:00pm 25.0 23.6 3.6 25 10.6 CALM 0 0 0 0 - - 0.0
25/08:30pm 25.3 24.0 3.9 25 10.7 CALM 0 0 0 0 - - 0.0
25/08:00pm 27.1 25.8 4.2 23 11.7 CALM 0 0 0 0 - - 0.0
25/07:30pm 28.8 26.5 0.5 16 13.7 SSW 2 4 1 2 - - 0.0
25/07:00pm 30.4 27.2 0.9 15 14.5 SSW 7 7 4 4 - - 0.0
25/06:30pm 31.3 27.9 -0.4 13 15.3 SSW 7 9 4 5 - - 0.0
25/06:00pm 33.2 30.1 -2.5 10 16.9 SSE 4 7 2 4 - - 0.0
25/05:30pm 34.0 31.6 -3.3 9 17.5 CALM 0 6 0 3 - - 0.0
25/05:00pm 34.4 30.7 -3.0 9 17.7 S 7 11 4 6 - - 0.0
25/04:30pm 34.4 29.9 -3.0 9 17.7 SSE 11 17 6 9 - - 0.0
25/04:00pm 35.0 31.3 -2.6 9 18.0 SSW 7 15 4 8 - - 0.0
25/03:30pm 34.9 31.2 -2.6 9 17.9 S 7 13 4 7 - - 0.0

Other formats

Comma delimited format used in spreadsheet applications
http://www.bom.gov.au/fwo/IDQ60801/IDQ60801.94348.axf

JavaScript Object Notation format (JSON) in row-major order
http://www.bom.gov.au/fwo/IDQ60801/IDQ60801.94348.json

Data quality

Most of these data are generated automatically and are frequently updated. Quality checks on data are not normally performed. It is possible for incorrect values to appear. Refer to information at About Latest Weather Observations and please check the disclaimer before using these data.